createdAt,value
2018-10-06T00:00:42.630Z,98.27
2018-10-06T00:01:42.556Z,97.89
2018-10-06T00:02:42.479Z,98.37
2018-10-06T00:03:42.402Z,98.32
2018-10-06T00:04:42.328Z,98.03
2018-10-06T00:05:42.254Z,98.18
2018-10-06T00:06:42.182Z,97.94
2018-10-06T00:07:42.103Z,98.13
2018-10-06T00:08:42.027Z,97.99
2018-10-06T00:09:41.951Z,98.23
2018-10-06T00:10:41.877Z,98.13
2018-10-06T00:11:41.803Z,98.18
2018-10-06T00:12:41.732Z,98.13
2018-10-06T00:13:41.656Z,98.03
2018-10-06T00:14:41.574Z,98.32
2018-10-06T00:15:41.498Z,98.47
2018-10-06T00:16:41.423Z,98.18
2018-10-06T00:17:41.345Z,97.80
2018-10-06T00:18:41.273Z,97.99
2018-10-06T00:19:41.198Z,98.27
2018-10-06T00:20:41.120Z,98.08
2018-10-06T00:21:41.048Z,97.89
2018-10-06T00:22:40.970Z,98.18
2018-10-06T00:23:40.898Z,98.47
2018-10-06T00:24:40.845Z,97.99
2018-10-06T00:25:40.741Z,97.89
2018-10-06T00:26:40.667Z,97.61
2018-10-06T00:27:40.594Z,97.89
2018-10-06T00:28:40.518Z,97.71
2018-10-06T00:29:40.440Z,98.27
2018-10-06T00:30:40.364Z,97.61
2018-10-06T00:31:40.290Z,98.08
2018-10-06T00:32:40.214Z,97.89
2018-10-06T00:33:40.140Z,97.71
2018-10-06T00:34:40.062Z,97.51
2018-10-06T00:35:39.988Z,97.32
2018-10-06T00:36:39.907Z,97.51
2018-10-06T00:37:39.838Z,97.42
2018-10-06T00:38:39.761Z,97.99
2018-10-06T00:39:39.684Z,97.51
2018-10-06T00:40:39.613Z,97.22
2018-10-06T00:41:39.533Z,97.61
2018-10-06T00:42:39.461Z,96.94
2018-10-06T00:43:39.382Z,97.08
2018-10-06T00:44:39.305Z,97.13
2018-10-06T00:45:39.231Z,97.22
2018-10-06T00:46:39.151Z,97.61
2018-10-06T00:47:39.087Z,97.13
2018-10-06T00:48:39.003Z,97.32
2018-10-06T00:49:38.925Z,97.32
2018-10-06T00:50:38.858Z,97.71
2018-10-06T00:51:38.773Z,97.42
2018-10-06T00:52:38.699Z,97.61
2018-10-06T00:53:38.623Z,97.32
2018-10-06T00:54:38.545Z,97.32
2018-10-06T00:55:38.472Z,97.42
2018-10-06T00:56:38.393Z,97.32
2018-10-06T00:57:38.319Z,97.32
2018-10-06T00:58:38.246Z,97.51
2018-10-06T00:59:38.168Z,97.51
2018-10-06T01:00:38.091Z,97.32
2018-10-06T01:01:38.016Z,97.22
2018-10-06T01:02:37.942Z,97.08
2018-10-06T01:03:37.867Z,97.13
2018-10-06T01:04:37.788Z,96.94
2018-10-06T01:05:37.711Z,97.17
2018-10-06T01:06:37.636Z,96.89
2018-10-06T01:07:37.564Z,96.89
2018-10-06T01:08:37.489Z,97.08
2018-10-06T01:09:37.409Z,96.98
2018-10-06T01:10:37.342Z,96.70
2018-10-06T01:11:37.261Z,96.70
2018-10-06T01:12:37.184Z,96.98
2018-10-06T01:13:37.104Z,97.08
2018-10-06T01:14:37.028Z,97.22
2018-10-06T01:15:36.955Z,97.17
2018-10-06T01:16:36.876Z,96.94
2018-10-06T01:17:36.799Z,97.17
2018-10-06T01:18:36.727Z,97.08
2018-10-06T01:19:36.651Z,97.08
2018-10-06T01:20:36.572Z,97.08
2018-10-06T01:21:36.503Z,96.98
2018-10-06T01:22:36.423Z,97.27
2018-10-06T01:23:36.349Z,96.80
2018-10-06T01:24:36.270Z,97.17
2018-10-06T01:25:36.195Z,97.08
2018-10-06T01:26:36.125Z,96.41
2018-10-06T01:27:36.037Z,96.32
2018-10-06T01:28:35.977Z,96.70
2018-10-06T01:29:35.891Z,96.51
2018-10-06T01:30:35.814Z,96.70
2018-10-06T01:31:35.741Z,96.51
2018-10-06T01:32:35.664Z,96.61
2018-10-06T01:33:35.588Z,96.32
2018-10-06T01:34:35.511Z,96.13
2018-10-06T01:35:35.435Z,96.51
2018-10-06T01:36:35.356Z,96.80
2018-10-06T01:37:35.284Z,96.03
2018-10-06T01:38:35.208Z,96.03
2018-10-06T01:39:35.132Z,96.22
2018-10-06T01:40:35.055Z,96.22
2018-10-06T01:41:34.978Z,96.03
2018-10-06T01:42:34.903Z,95.94
2018-10-06T01:43:34.827Z,95.84
2018-10-06T01:44:34.750Z,95.75
2018-10-06T01:45:34.674Z,96.03
2018-10-06T01:46:34.601Z,96.03
2018-10-06T01:47:34.525Z,96.13
2018-10-06T01:48:34.445Z,95.84
2018-10-06T01:49:34.370Z,95.65
2018-10-06T01:50:34.295Z,95.17
2018-10-06T01:51:34.220Z,95.27
2018-10-06T01:52:34.142Z,95.65
2018-10-06T01:53:34.066Z,95.75
2018-10-06T01:54:33.991Z,95.08
2018-10-06T01:55:33.914Z,95.27
2018-10-06T01:56:33.839Z,95.17
2018-10-06T01:57:33.783Z,95.46
2018-10-06T01:58:33.688Z,95.37
2018-10-06T01:59:33.616Z,95.37
2018-10-06T02:00:33.536Z,95.75
2018-10-06T02:01:33.459Z,95.27
2018-10-06T02:02:33.379Z,95.37
2018-10-06T02:03:33.302Z,95.27
2018-10-06T02:04:33.228Z,95.17
2018-10-06T02:05:33.155Z,95.27
2018-10-06T02:06:33.078Z,95.08
2018-10-06T02:07:33.000Z,95.56
2018-10-06T02:08:32.922Z,95.46
2018-10-06T02:09:32.846Z,95.37
2018-10-06T02:10:32.773Z,95.27
2018-10-06T02:11:32.693Z,95.46
2018-10-06T02:12:32.618Z,95.27
2018-10-06T02:13:32.541Z,95.08
2018-10-06T02:14:32.465Z,95.17
2018-10-06T02:15:32.389Z,95.37
2018-10-06T02:16:32.312Z,95.08
2018-10-06T02:17:32.237Z,95.08
2018-10-06T02:18:32.161Z,95.08
2018-10-06T02:19:32.092Z,95.37
2018-10-06T02:20:32.006Z,94.98
2018-10-06T02:21:31.935Z,95.46
2018-10-06T02:22:31.855Z,95.17
2018-10-06T02:23:31.784Z,95.17
2018-10-06T02:24:31.703Z,95.46
2018-10-06T02:25:31.626Z,95.56
2018-10-06T02:26:31.550Z,95.27
2018-10-06T02:27:31.472Z,95.17
2018-10-06T02:28:31.398Z,95.46
2018-10-06T02:29:31.321Z,95.17
2018-10-06T02:30:31.249Z,95.27
2018-10-06T02:31:31.172Z,95.37
2018-10-06T02:32:31.092Z,95.27
2018-10-06T02:33:31.018Z,95.75
2018-10-06T02:34:30.978Z,95.27
2018-10-06T02:35:30.865Z,95.65
2018-10-06T02:36:30.788Z,95.37
2018-10-06T02:37:30.715Z,95.75
2018-10-06T02:38:30.637Z,95.17
2018-10-06T02:39:30.561Z,95.46
2018-10-06T02:40:30.484Z,95.17
2018-10-06T02:41:30.408Z,95.08
2018-10-06T02:42:30.334Z,94.98
2018-10-06T02:43:30.255Z,95.17
2018-10-06T02:44:30.180Z,95.08
2018-10-06T02:45:30.103Z,95.46
2018-10-06T02:46:30.030Z,95.46
2018-10-06T02:47:29.950Z,95.37
2018-10-06T02:48:29.877Z,95.37
2018-10-06T02:49:29.798Z,95.37
2018-10-06T02:50:29.722Z,95.17
2018-10-06T02:51:29.648Z,95.37
2018-10-06T02:52:29.574Z,95.46
2018-10-06T02:53:29.493Z,95.32
2018-10-06T02:54:29.428Z,95.61
2018-10-06T02:55:29.343Z,95.22
2018-10-06T02:56:29.264Z,95.37
2018-10-06T02:57:29.189Z,95.22
2018-10-06T02:58:29.116Z,95.12
2018-10-06T02:59:29.039Z,95.61
2018-10-06T03:00:28.963Z,95.51
2018-10-06T03:01:28.884Z,95.12
2018-10-06T03:02:28.807Z,94.93
2018-10-06T03:03:28.729Z,95.22
2018-10-06T03:04:28.655Z,95.22
2018-10-06T03:05:28.577Z,95.22
2018-10-06T03:06:28.502Z,94.93
2018-10-06T03:07:28.425Z,95.51
2018-10-06T03:08:28.350Z,94.65
2018-10-06T03:09:28.275Z,95.32
2018-10-06T03:10:28.198Z,95.41
2018-10-06T03:11:28.122Z,94.93
2018-10-06T03:12:28.045Z,94.93
2018-10-06T03:13:27.968Z,94.84
2018-10-06T03:14:27.895Z,94.93
2018-10-06T03:15:27.817Z,94.56
2018-10-06T03:16:27.738Z,94.56
2018-10-06T03:17:27.663Z,94.65
2018-10-06T03:18:27.590Z,94.56
2018-10-06T03:19:27.510Z,94.37
2018-10-06T03:20:27.435Z,94.27
2018-10-06T03:21:27.359Z,94.08
2018-10-06T03:22:27.288Z,93.98
2018-10-06T03:23:27.211Z,93.60
2018-10-06T03:24:27.129Z,93.98
2018-10-06T03:25:27.051Z,94.08
2018-10-06T03:26:26.975Z,93.88
2018-10-06T03:27:26.902Z,93.79
2018-10-06T03:28:26.826Z,93.32
2018-10-06T03:29:26.746Z,93.37
2018-10-06T03:30:26.670Z,92.79
2018-10-06T03:31:26.606Z,93.08
2018-10-06T03:32:26.529Z,92.50
2018-10-06T03:33:26.447Z,92.84
2018-10-06T03:34:26.367Z,92.89
2018-10-06T03:35:26.290Z,92.50
2018-10-06T03:36:26.212Z,92.03
2018-10-06T03:37:26.131Z,92.03
2018-10-06T03:38:26.060Z,92.22
2018-10-06T03:39:25.983Z,92.13
2018-10-06T03:40:25.906Z,92.03
2018-10-06T03:41:25.829Z,92.13
2018-10-06T03:42:25.747Z,91.94
2018-10-06T03:43:25.678Z,91.55
2018-10-06T03:44:25.621Z,91.94
2018-10-06T03:45:25.523Z,91.84
2018-10-06T03:46:25.447Z,90.98
2018-10-06T03:47:25.372Z,92.03
2018-10-06T03:48:25.297Z,91.55
2018-10-06T03:49:25.223Z,91.17
2018-10-06T03:50:25.144Z,91.74
2018-10-06T03:51:25.066Z,91.84
2018-10-06T03:52:24.987Z,91.94
2018-10-06T03:53:24.909Z,91.74
2018-10-06T03:54:24.836Z,91.55
2018-10-06T03:55:24.757Z,91.84
2018-10-06T03:56:24.682Z,91.65
2018-10-06T03:57:24.610Z,92.03
2018-10-06T03:58:24.529Z,91.94
2018-10-06T03:59:24.459Z,91.65
2018-10-06T04:00:24.373Z,91.27
2018-10-06T04:01:24.298Z,91.27
2018-10-06T04:02:24.221Z,91.84
2018-10-06T04:03:24.145Z,91.65
2018-10-06T04:04:24.067Z,91.36
2018-10-06T04:05:23.993Z,91.36
2018-10-06T04:06:23.913Z,91.46
2018-10-06T04:07:23.838Z,91.84
2018-10-06T04:08:23.766Z,91.94
2018-10-06T04:09:23.683Z,91.84
2018-10-06T04:10:23.608Z,91.94
2018-10-06T04:11:23.533Z,91.36
2018-10-06T04:12:23.454Z,91.84
2018-10-06T04:13:23.378Z,91.94
2018-10-06T04:14:23.299Z,91.65
2018-10-06T04:15:23.225Z,91.74
2018-10-06T04:16:23.149Z,92.13
2018-10-06T04:17:23.070Z,91.94
2018-10-06T04:18:22.997Z,91.94
2018-10-06T04:19:22.916Z,91.55
2018-10-06T04:20:22.840Z,91.55
2018-10-06T04:21:22.770Z,91.55
2018-10-06T04:22:22.693Z,91.36
2018-10-06T04:23:22.616Z,91.08
2018-10-06T04:24:22.545Z,91.36
2018-10-06T04:25:22.456Z,91.94
2018-10-06T04:26:22.385Z,91.08
2018-10-06T04:27:22.307Z,91.46
2018-10-06T04:28:22.250Z,91.08
2018-10-06T04:29:22.150Z,91.46
2018-10-06T04:30:22.075Z,91.55
2018-10-06T04:31:21.997Z,91.08
2018-10-06T04:32:21.920Z,91.17
2018-10-06T04:33:21.845Z,91.46
2018-10-06T04:34:21.767Z,91.17
2018-10-06T04:35:21.707Z,91.08
2018-10-06T04:36:21.615Z,91.55
2018-10-06T04:37:21.543Z,91.46
2018-10-06T04:38:21.461Z,91.36
2018-10-06T04:39:21.386Z,91.22
2018-10-06T04:40:21.307Z,91.55
2018-10-06T04:41:21.234Z,91.36
2018-10-06T04:42:21.151Z,91.36
2018-10-06T04:43:21.078Z,91.17
2018-10-06T04:44:20.998Z,90.89
2018-10-06T04:45:20.921Z,91.17
2018-10-06T04:46:20.845Z,91.08
2018-10-06T04:47:20.769Z,91.36
2018-10-06T04:48:20.690Z,91.27
2018-10-06T04:49:20.621Z,90.89
2018-10-06T04:50:20.544Z,91.08
2018-10-06T04:51:20.463Z,91.27
2018-10-06T04:52:20.384Z,90.79
2018-10-06T04:53:20.434Z,91.36
2018-10-06T04:54:20.233Z,91.36
2018-10-06T04:55:20.156Z,91.36
2018-10-06T04:56:20.081Z,91.27
2018-10-06T04:57:20.005Z,91.46
2018-10-06T04:58:19.930Z,91.36
2018-10-06T04:59:19.855Z,91.36
2018-10-06T05:00:19.772Z,91.55
2018-10-06T05:01:19.693Z,91.36
2018-10-06T05:02:19.617Z,91.36
2018-10-06T05:03:19.571Z,91.36
2018-10-06T05:04:19.462Z,90.79
2018-10-06T05:05:19.387Z,91.36
2018-10-06T05:06:19.313Z,91.46
2018-10-06T05:07:19.236Z,91.36
2018-10-06T05:08:19.164Z,90.98
2018-10-06T05:09:19.085Z,91.27
2018-10-06T05:10:19.006Z,91.84
2018-10-06T05:11:18.927Z,90.98
2018-10-06T05:12:18.851Z,91.08
2018-10-06T05:13:18.774Z,91.08
2018-10-06T05:14:18.698Z,90.70
2018-10-06T05:15:18.622Z,90.70
2018-10-06T05:16:18.544Z,90.89
2018-10-06T05:17:18.467Z,91.27
2018-10-06T05:18:18.391Z,90.60
2018-10-06T05:19:18.315Z,90.60
2018-10-06T05:20:18.237Z,90.79
2018-10-06T05:21:18.160Z,90.50
2018-10-06T05:22:18.083Z,90.50
2018-10-06T05:23:18.009Z,90.79
2018-10-06T05:24:17.929Z,90.60
2018-10-06T05:25:17.853Z,90.70
2018-10-06T05:26:17.775Z,90.70
2018-10-06T05:27:17.701Z,90.41
2018-10-06T05:28:17.623Z,90.60
2018-10-06T05:29:17.543Z,90.22
2018-10-06T05:30:17.471Z,90.79
2018-10-06T05:31:17.397Z,90.79
2018-10-06T05:32:17.315Z,90.79
2018-10-06T05:33:17.241Z,90.60
2018-10-06T05:34:17.161Z,90.50
2018-10-06T05:35:17.090Z,90.50
2018-10-06T05:36:17.008Z,90.50
2018-10-06T05:37:16.932Z,90.79
2018-10-06T05:38:16.855Z,90.50
2018-10-06T05:39:16.782Z,90.98
2018-10-06T05:40:16.703Z,90.41
2018-10-06T05:41:16.625Z,90.41
2018-10-06T05:42:16.550Z,90.70
2018-10-06T05:43:16.472Z,90.22
2018-10-06T05:44:16.394Z,90.60
2018-10-06T05:45:16.317Z,90.98
2018-10-06T05:46:16.291Z,90.50
2018-10-06T05:47:16.166Z,90.84
2018-10-06T05:48:16.088Z,90.74
2018-10-06T05:49:16.013Z,90.55
2018-10-06T05:50:15.937Z,90.84
2018-10-06T05:51:15.859Z,91.03
2018-10-06T05:52:15.784Z,90.74
2018-10-06T05:53:15.706Z,90.93
2018-10-06T05:54:15.627Z,90.55
2018-10-06T05:55:15.550Z,90.84
2018-10-06T05:56:15.472Z,90.64
2018-10-06T05:57:15.396Z,90.74
2018-10-06T05:58:15.324Z,91.69
2018-10-06T05:59:15.338Z,91.41
2018-10-06T06:00:15.166Z,91.60
2018-10-06T06:01:15.090Z,91.60
2018-10-06T06:02:15.013Z,91.22
2018-10-06T06:03:14.938Z,91.22
2018-10-06T06:04:14.859Z,91.31
2018-10-06T06:05:14.785Z,91.41
2018-10-06T06:06:14.706Z,91.03
2018-10-06T06:07:14.629Z,91.31
2018-10-06T06:08:14.554Z,90.84
2018-10-06T06:09:14.476Z,91.41
2018-10-06T06:10:14.403Z,91.69
2018-10-06T06:11:14.329Z,91.22
2018-10-06T06:12:14.245Z,91.31
2018-10-06T06:13:14.179Z,91.60
2018-10-06T06:14:14.104Z,91.03
2018-10-06T06:15:14.015Z,91.41
2018-10-06T06:16:13.941Z,91.31
2018-10-06T06:17:13.867Z,91.41
2018-10-06T06:18:13.790Z,91.41
2018-10-06T06:19:13.711Z,91.50
2018-10-06T06:20:13.632Z,91.41
2018-10-06T06:21:13.557Z,91.22
2018-10-06T06:22:13.480Z,91.88
2018-10-06T06:23:13.407Z,91.69
2018-10-06T06:24:13.328Z,91.69
2018-10-06T06:25:13.251Z,91.93
2018-10-06T06:26:13.175Z,92.03
2018-10-06T06:27:13.102Z,91.93
2018-10-06T06:28:13.030Z,92.22
2018-10-06T06:29:12.949Z,92.03
2018-10-06T06:30:12.869Z,91.36
2018-10-06T06:31:12.804Z,91.64
2018-10-06T06:32:12.780Z,91.83
2018-10-06T06:33:12.689Z,92.41
2018-10-06T06:34:12.564Z,92.83
2018-10-06T06:35:12.491Z,92.41
2018-10-06T06:36:12.410Z,92.17
2018-10-06T06:37:12.336Z,92.26
2018-10-06T06:38:12.290Z,92.26
2018-10-06T06:39:12.184Z,92.83
2018-10-06T06:40:12.104Z,93.12
2018-10-06T06:41:12.029Z,92.93
2018-10-06T06:42:11.957Z,93.12
2018-10-06T06:43:11.880Z,92.93
2018-10-06T06:44:11.863Z,93.70
2018-10-06T06:45:11.739Z,93.79
2018-10-06T06:46:11.679Z,93.02
2018-10-06T06:47:11.575Z,93.02
2018-10-06T06:48:11.498Z,92.93
2018-10-06T06:49:11.427Z,93.51
2018-10-06T06:50:11.348Z,93.60
2018-10-06T06:51:11.268Z,93.31
2018-10-06T06:52:11.194Z,93.60
2018-10-06T06:53:11.121Z,93.55
2018-10-06T06:54:11.050Z,93.22
2018-10-06T06:55:10.971Z,93.26
2018-10-06T06:56:10.890Z,93.93
2018-10-06T06:57:10.816Z,93.65
2018-10-06T06:58:10.739Z,94.03
2018-10-06T06:59:10.664Z,93.55
2018-10-06T07:00:10.586Z,93.93
2018-10-06T07:01:10.511Z,93.84
2018-10-06T07:02:10.436Z,94.03
2018-10-06T07:03:10.361Z,93.93
2018-10-06T07:04:10.285Z,93.93
2018-10-06T07:05:10.207Z,93.65
2018-10-06T07:06:10.131Z,93.84
2018-10-06T07:07:10.057Z,93.55
2018-10-06T07:08:09.980Z,94.74
2018-10-06T07:09:09.906Z,93.55
2018-10-06T07:10:09.830Z,94.31
2018-10-06T07:11:09.756Z,94.55
2018-10-06T07:12:09.676Z,94.65
2018-10-06T07:13:09.603Z,94.55
2018-10-06T07:14:09.526Z,94.65
2018-10-06T07:15:09.454Z,94.55
2018-10-06T07:16:09.378Z,94.46
2018-10-06T07:17:09.302Z,94.36
2018-10-06T07:18:09.226Z,94.55
2018-10-06T07:19:09.152Z,94.36
2018-10-06T07:20:09.075Z,94.84
2018-10-06T07:21:09.000Z,94.41
2018-10-06T07:22:08.924Z,94.22
2018-10-06T07:23:08.849Z,94.51
2018-10-06T07:24:08.774Z,94.98
2018-10-06T07:25:08.699Z,94.98
2018-10-06T07:26:08.626Z,94.98
2018-10-06T07:27:08.549Z,94.79
2018-10-06T07:28:08.473Z,95.36
2018-10-06T07:29:08.410Z,94.60
2018-10-06T07:30:08.323Z,94.98
2018-10-06T07:31:08.248Z,94.98
2018-10-06T07:32:08.170Z,95.36
2018-10-06T07:33:08.098Z,95.17
2018-10-06T07:34:08.020Z,95.27
2018-10-06T07:35:07.952Z,95.27
2018-10-06T07:36:07.872Z,95.65
2018-10-06T07:37:07.804Z,95.36
2018-10-06T07:38:07.722Z,94.79
2018-10-06T07:39:07.648Z,95.65
2018-10-06T07:40:07.575Z,95.41
2018-10-06T07:41:07.499Z,95.51
2018-10-06T07:42:07.424Z,95.12
2018-10-06T07:43:07.356Z,95.98
2018-10-06T07:44:07.276Z,95.61
2018-10-06T07:45:07.203Z,95.61
2018-10-06T07:46:07.126Z,96.27
2018-10-06T07:47:07.052Z,95.70
2018-10-06T07:48:06.976Z,95.41
2018-10-06T07:49:06.901Z,95.61
2018-10-06T07:50:06.826Z,95.51
2018-10-06T07:51:06.755Z,95.41
2018-10-06T07:52:06.679Z,96.27
2018-10-06T07:53:06.654Z,95.98
2018-10-06T07:54:06.529Z,96.22
2018-10-06T07:55:06.452Z,96.13
2018-10-06T07:56:06.380Z,95.94
2018-10-06T07:57:06.304Z,96.03
2018-10-06T07:58:06.237Z,96.22
2018-10-06T07:59:06.172Z,96.32
2018-10-06T08:00:06.098Z,96.32
2018-10-06T08:01:06.007Z,95.84
2018-10-06T08:02:05.934Z,96.22
2018-10-06T08:03:05.857Z,96.03
2018-10-06T08:04:05.784Z,95.94
2018-10-06T08:05:05.712Z,96.37
2018-10-06T08:06:05.637Z,96.47
2018-10-06T08:07:05.564Z,96.47
2018-10-06T08:08:05.487Z,96.66
2018-10-06T08:09:05.413Z,96.66
2018-10-06T08:10:05.340Z,96.66
2018-10-06T08:11:05.264Z,96.66
2018-10-06T08:12:05.188Z,96.56
2018-10-06T08:13:05.115Z,96.89
2018-10-06T08:14:05.041Z,96.61
2018-10-06T08:15:04.966Z,96.61
2018-10-06T08:16:04.893Z,96.22
2018-10-06T08:17:04.819Z,96.80
2018-10-06T08:18:04.745Z,96.70
2018-10-06T08:19:04.674Z,96.89
2018-10-06T08:20:04.599Z,96.75
2018-10-06T08:21:04.523Z,97.04
2018-10-06T08:22:04.453Z,96.89
2018-10-06T08:23:04.379Z,96.22
2018-10-06T08:24:04.302Z,96.51
2018-10-06T08:25:04.224Z,96.13
2018-10-06T08:26:04.153Z,96.42
2018-10-06T08:27:04.090Z,96.51
2018-10-06T08:28:04.007Z,96.70
2018-10-06T08:29:03.934Z,96.89
2018-10-06T08:30:03.859Z,96.89
2018-10-06T08:31:03.785Z,96.89
2018-10-06T08:32:03.711Z,96.80
2018-10-06T08:33:03.637Z,96.85
2018-10-06T08:34:03.566Z,96.32
2018-10-06T08:35:03.493Z,96.18
2018-10-06T08:36:03.420Z,94.83
2018-10-06T08:37:03.345Z,94.49
2018-10-06T08:38:03.269Z,94.26
2018-10-06T08:39:03.199Z,94.74
2018-10-06T08:40:03.123Z,94.45
2018-10-06T08:41:03.051Z,94.45
2018-10-06T08:42:02.978Z,94.83
2018-10-06T08:43:02.907Z,95.12
2018-10-06T08:44:02.836Z,94.93
2018-10-06T08:45:02.762Z,95.17
2018-10-06T08:46:02.692Z,94.79
2018-10-06T08:47:02.617Z,95.55
2018-10-06T08:48:02.540Z,95.60
2018-10-06T08:49:02.467Z,95.26
2018-10-06T08:50:02.397Z,95.75
2018-10-06T08:51:02.325Z,95.50
2018-10-06T08:52:02.251Z,95.79
2018-10-06T08:53:02.181Z,94.98
2018-10-06T08:54:02.108Z,93.73
2018-10-06T08:55:02.035Z,91.03
2018-10-06T08:56:02.058Z,87.80
2018-10-06T08:57:01.890Z,84.76
2018-10-06T08:58:01.815Z,82.45
2018-10-06T08:59:01.752Z,79.31
2018-10-06T09:00:01.673Z,74.27
2018-10-06T09:01:01.605Z,73.47
2018-10-06T09:02:01.525Z,73.79
2018-10-06T09:03:01.459Z,70.39
2018-10-06T09:04:01.385Z,68.10
2018-10-06T09:05:01.316Z,65.34
2018-10-06T09:06:01.240Z,63.98
2018-10-06T09:07:01.170Z,63.34
2018-10-06T09:08:01.105Z,63.31
2018-10-06T09:09:01.028Z,64.82
2018-10-06T09:10:00.959Z,65.50
2018-10-06T09:11:00.945Z,66.27
2018-10-06T09:12:00.813Z,66.72
2018-10-06T09:13:00.746Z,68.23
2018-10-06T09:14:00.681Z,70.36
2018-10-06T09:15:00.603Z,70.42
2018-10-06T09:16:00.535Z,69.10
2018-10-06T09:17:00.463Z,70.90
2018-10-06T09:18:00.391Z,73.31
2018-10-06T09:19:00.322Z,74.52
2018-10-06T09:20:00.249Z,73.99
2018-10-06T09:21:00.182Z,74.27
2018-10-06T09:22:00.116Z,73.11
2018-10-06T09:23:00.041Z,73.35
2018-10-06T09:23:59.969Z,72.00
2018-10-06T09:24:59.901Z,72.58
2018-10-06T09:25:59.834Z,72.28
2018-10-06T09:26:59.762Z,69.26
2018-10-06T09:27:59.694Z,68.68
2018-10-06T09:28:59.624Z,67.33
2018-10-06T09:29:59.554Z,67.08
2018-10-06T09:30:59.486Z,65.82
2018-10-06T09:31:59.417Z,65.66
2018-10-06T09:32:59.343Z,65.24
2018-10-06T09:33:59.274Z,66.01
2018-10-06T09:34:59.205Z,66.30
2018-10-06T09:35:59.135Z,68.65
2018-10-06T09:36:59.064Z,69.52
2018-10-06T09:37:58.995Z,69.81
2018-10-06T09:38:58.928Z,70.64
2018-10-06T09:39:58.857Z,71.80
2018-10-06T09:40:58.788Z,72.34
2018-10-06T09:41:58.808Z,73.63
2018-10-06T09:42:58.717Z,74.31
2018-10-06T09:43:58.579Z,72.90
2018-10-06T09:44:58.511Z,69.17
2018-10-06T09:45:58.446Z,68.68
2018-10-06T09:46:58.377Z,67.66
2018-10-06T09:47:58.318Z,67.66
2018-10-06T09:48:58.238Z,65.92
2018-10-06T09:49:58.166Z,65.17
2018-10-06T09:50:58.102Z,64.01
2018-10-06T09:51:58.025Z,63.63
2018-10-06T09:52:57.987Z,64.79
2018-10-06T09:53:57.893Z,65.08
2018-10-06T09:54:57.868Z,64.85
2018-10-06T09:55:57.750Z,64.85
2018-10-06T09:56:57.682Z,66.30
2018-10-06T09:57:57.614Z,66.50
2018-10-06T09:58:57.549Z,66.78
2018-10-06T09:59:57.474Z,66.43
2018-10-06T10:00:57.407Z,64.89
2018-10-06T10:01:57.335Z,65.14
2018-10-06T10:02:57.269Z,63.60
2018-10-06T10:03:57.200Z,63.31
2018-10-06T10:04:57.132Z,61.76
2018-10-06T10:05:57.091Z,62.70
2018-10-06T10:06:56.999Z,63.66
2018-10-06T10:07:56.927Z,63.95
2018-10-06T10:08:56.861Z,63.66
2018-10-06T10:09:56.878Z,64.92
2018-10-06T10:10:56.726Z,62.60
2018-10-06T10:11:56.655Z,62.70
2018-10-06T10:12:56.586Z,63.56
2018-10-06T10:13:56.516Z,63.37
2018-10-06T10:14:56.450Z,62.73
2018-10-06T10:15:56.384Z,63.50
2018-10-06T10:16:56.320Z,62.40
2018-10-06T10:17:56.256Z,63.37
2018-10-06T10:18:56.181Z,63.66
2018-10-06T10:19:56.104Z,62.57
2018-10-06T10:20:56.039Z,63.15
2018-10-06T10:21:55.990Z,63.66
2018-10-06T10:22:55.913Z,64.24
2018-10-06T10:23:55.860Z,65.01
2018-10-06T10:24:55.767Z,65.01
2018-10-06T10:25:55.692Z,63.95
2018-10-06T10:26:55.627Z,63.66
2018-10-06T10:27:55.556Z,62.44
2018-10-06T10:28:55.576Z,62.63
2018-10-06T10:29:55.420Z,62.50
2018-10-06T10:30:55.352Z,63.47
2018-10-06T10:31:55.286Z,63.95
2018-10-06T10:32:55.214Z,63.18
2018-10-06T10:33:55.146Z,62.60
2018-10-06T10:34:55.078Z,63.76
2018-10-06T10:35:55.012Z,63.66
2018-10-06T10:36:54.942Z,63.47
2018-10-06T10:37:54.872Z,62.18
2018-10-06T10:38:54.806Z,63.73
2018-10-06T10:39:54.739Z,63.15
2018-10-06T10:40:54.719Z,63.82
2018-10-06T10:41:54.601Z,63.24
2018-10-06T10:42:54.534Z,63.73
2018-10-06T10:43:54.502Z,63.73
2018-10-06T10:44:54.391Z,64.59
2018-10-06T10:45:54.324Z,64.21
2018-10-06T10:46:54.256Z,64.53
2018-10-06T10:47:54.187Z,64.63
2018-10-06T10:48:54.121Z,63.95
2018-10-06T10:49:54.050Z,63.56
2018-10-06T10:50:53.984Z,63.50
2018-10-06T10:51:53.912Z,62.50
2018-10-06T10:52:53.843Z,62.79
2018-10-06T10:53:53.776Z,63.08
2018-10-06T10:54:53.708Z,63.66
2018-10-06T10:55:53.638Z,62.73
2018-10-06T10:56:53.571Z,62.34
2018-10-06T10:57:53.599Z,62.44
2018-10-06T10:58:53.436Z,61.76
2018-10-06T10:59:53.573Z,62.60
2018-10-06T11:00:53.301Z,62.40
2018-10-06T11:01:53.227Z,62.44
2018-10-06T11:02:53.157Z,62.24
2018-10-06T11:03:53.108Z,62.05
2018-10-06T11:04:53.108Z,62.53
2018-10-06T11:05:52.957Z,61.57
2018-10-06T11:06:52.882Z,61.69
2018-10-06T11:07:52.814Z,61.69
2018-10-06T11:08:52.745Z,59.83
2018-10-06T11:09:52.679Z,60.31
2018-10-06T11:10:52.608Z,60.60
2018-10-06T11:11:52.546Z,59.95
2018-10-06T11:12:52.471Z,61.02
2018-10-06T11:13:52.403Z,61.40
2018-10-06T11:14:52.336Z,60.34
2018-10-06T11:15:52.264Z,59.18
2018-10-06T11:16:52.202Z,59.01
2018-10-06T11:17:52.130Z,59.50
2018-10-06T11:18:52.062Z,59.89
2018-10-06T11:19:51.985Z,59.21
2018-10-06T11:20:51.925Z,59.98
2018-10-06T11:21:51.856Z,59.98
2018-10-06T11:22:51.789Z,60.17
2018-10-06T11:23:51.718Z,61.24
2018-10-06T11:24:51.675Z,61.66
2018-10-06T11:25:51.588Z,59.82
2018-10-06T11:26:51.508Z,57.98
2018-10-06T11:27:51.448Z,58.95
2018-10-06T11:28:51.382Z,57.01
2018-10-06T11:29:51.312Z,57.79
2018-10-06T11:30:51.239Z,56.46
2018-10-06T11:31:51.175Z,56.49
2018-10-06T11:32:51.111Z,55.00
2018-10-06T11:33:51.038Z,56.26
2018-10-06T11:34:50.974Z,56.65
2018-10-06T11:35:50.903Z,57.33
2018-10-06T11:36:50.836Z,56.46
2018-10-06T11:37:50.806Z,56.46
2018-10-06T11:38:50.704Z,56.20
2018-10-06T11:39:50.634Z,55.81
2018-10-06T11:40:50.570Z,55.32
2018-10-06T11:41:50.501Z,55.32
2018-10-06T11:42:50.433Z,56.29
2018-10-06T11:43:50.364Z,54.71
2018-10-06T11:44:50.296Z,54.81
2018-10-06T11:45:50.234Z,55.52
2018-10-06T11:46:50.163Z,56.68
2018-10-06T11:47:50.096Z,56.81
2018-10-06T11:48:50.031Z,54.58
2018-10-06T11:49:50.014Z,53.51
2018-10-06T11:50:49.895Z,53.53
2018-10-06T11:51:49.826Z,53.61
2018-10-06T11:52:49.758Z,53.41
2018-10-06T11:53:49.699Z,54.09
2018-10-06T11:54:49.631Z,54.67
2018-10-06T11:55:49.561Z,53.99
2018-10-06T11:56:49.495Z,54.02
2018-10-06T11:57:49.431Z,53.44
2018-10-06T11:58:49.381Z,53.08
2018-10-06T11:59:49.327Z,53.10
2018-10-06T12:00:49.287Z,52.42
2018-10-06T12:01:49.165Z,52.11
2018-10-06T12:02:49.097Z,52.50
2018-10-06T12:03:49.031Z,52.37
2018-10-06T12:04:48.971Z,52.56
2018-10-06T12:05:48.955Z,52.56
2018-10-06T12:06:48.842Z,53.34
2018-10-06T12:07:48.770Z,53.44
2018-10-06T12:08:48.705Z,53.15
2018-10-06T12:09:48.637Z,53.61
2018-10-06T12:10:48.573Z,53.31
2018-10-06T12:11:48.506Z,53.80
2018-10-06T12:12:48.439Z,53.99
2018-10-06T12:13:48.377Z,53.99
2018-10-06T12:14:48.309Z,54.96
2018-10-06T12:15:48.245Z,54.67
2018-10-06T12:16:48.178Z,54.96
2018-10-06T12:17:48.116Z,54.58
2018-10-06T12:18:48.046Z,54.77
2018-10-06T12:19:47.979Z,54.45
2018-10-06T12:20:47.921Z,54.71
2018-10-06T12:21:47.847Z,55.42
2018-10-06T12:22:47.785Z,55.22
2018-10-06T12:23:47.718Z,55.32
2018-10-06T12:24:47.653Z,55.42
2018-10-06T12:25:47.585Z,55.13
2018-10-06T12:26:47.523Z,55.90
2018-10-06T12:27:47.453Z,55.26
2018-10-06T12:28:47.385Z,54.84
2018-10-06T12:29:47.324Z,55.22
2018-10-06T12:30:47.252Z,55.35
2018-10-06T12:31:47.184Z,55.04
2018-10-06T12:32:47.120Z,54.26
2018-10-06T12:33:47.055Z,55.04
2018-10-06T12:34:47.063Z,54.74
2018-10-06T12:35:47.021Z,55.04
2018-10-06T12:36:46.869Z,55.32
2018-10-06T12:37:46.788Z,56.10
2018-10-06T12:38:46.721Z,54.86
2018-10-06T12:39:46.653Z,54.96
2018-10-06T12:40:46.584Z,54.86
2018-10-06T12:41:46.524Z,54.96
2018-10-06T12:42:46.452Z,54.77
2018-10-06T12:43:46.390Z,54.96
2018-10-06T12:44:46.319Z,54.67
2018-10-06T12:45:46.258Z,53.22
2018-10-06T12:46:46.187Z,53.15
2018-10-06T12:47:46.120Z,53.31
2018-10-06T12:48:46.056Z,53.41
2018-10-06T12:49:45.989Z,53.31
2018-10-06T12:50:45.919Z,52.64
2018-10-06T12:51:45.852Z,52.18